Absecon City, New Jersey
Current Conditions -  °F | °C
As of 6:54 AM on Monday 22 Dec 2014 (Local Time) from KACY Reporting Station
Clear Clear  
Wind Chill: 23°   Ceiling: Unl
Heat Index: 23°   Visibility: 10mi
Dew Point: 19°   Wind: 3mph
Humidity: 85%   Direction: 330°NNW
Pressure: 30.3"   Gusts: NA
Location:  39.4315°N, 74.5003°W
Report Text: KACY 221154Z 33003KT 10SM CLR M05/M07 A3030 RMK AO2 SLP260 T10501072 11028 21061 56004
Loading
Personal Weather Stations






























Interactive Weather Map New forecast layout! Learn more

10-Day Weather Forecast

Advertisements
Track Severe Weather on mobile